sensor_id;sensor_type;location;lat;lon;timestamp;temperature;humidity
72772;SHT30;60894;42.544;1.516;2024-03-08T00:00:28;2.62;72.32
72772;SHT30;60894;42.544;1.516;2024-03-08T00:02:57;2.72;72.27
72772;SHT30;60894;42.544;1.516;2024-03-08T00:05:28;2.81;70.77
72772;SHT30;60894;42.544;1.516;2024-03-08T00:07:55;2.75;71.39
72772;SHT30;60894;42.544;1.516;2024-03-08T00:10:22;2.48;72.27
72772;SHT30;60894;42.544;1.516;2024-03-08T00:12:49;2.61;72.21
72772;SHT30;60894;42.544;1.516;2024-03-08T00:15:17;2.62;73.01
72772;SHT30;60894;42.544;1.516;2024-03-08T00:17:44;2.62;72.11
72772;SHT30;60894;42.544;1.516;2024-03-08T00:20:11;2.62;72.31
72772;SHT30;60894;42.544;1.516;2024-03-08T00:22:40;2.73;71.66
72772;SHT30;60894;42.544;1.516;2024-03-08T00:25:07;2.76;71.30
72772;SHT30;60894;42.544;1.516;2024-03-08T00:27:35;2.88;70.90
72772;SHT30;60894;42.544;1.516;2024-03-08T00:30:03;3.13;70.49
72772;SHT30;60894;42.544;1.516;2024-03-08T00:32:30;3.14;69.37
72772;SHT30;60894;42.544;1.516;2024-03-08T00:34:58;3.13;69.90
72772;SHT30;60894;42.544;1.516;2024-03-08T00:37:25;2.99;72.37
72772;SHT30;60894;42.544;1.516;2024-03-08T00:39:53;3.28;70.29
72772;SHT30;60894;42.544;1.516;2024-03-08T00:42:20;3.09;71.14
72772;SHT30;60894;42.544;1.516;2024-03-08T00:44:47;3.06;71.22
72772;SHT30;60894;42.544;1.516;2024-03-08T00:47:16;2.96;71.24
72772;SHT30;60894;42.544;1.516;2024-03-08T00:49:43;2.96;71.10
72772;SHT30;60894;42.544;1.516;2024-03-08T00:52:10;3.02;71.05
72772;SHT30;60894;42.544;1.516;2024-03-08T00:54:37;3.07;70.94
72772;SHT30;60894;42.544;1.516;2024-03-08T00:57:06;3.17;70.29
72772;SHT30;60894;42.544;1.516;2024-03-08T00:59:32;3.10;70.65
72772;SHT30;60894;42.544;1.516;2024-03-08T01:02:00;3.24;70.41
72772;SHT30;60894;42.544;1.516;2024-03-08T01:04:27;3.07;70.73
72772;SHT30;60894;42.544;1.516;2024-03-08T01:06:55;3.10;70.59
72772;SHT30;60894;42.544;1.516;2024-03-08T01:09:22;3.16;70.14
72772;SHT30;60894;42.544;1.516;2024-03-08T01:11:49;2.78;70.64
72772;SHT30;60894;42.544;1.516;2024-03-08T01:14:17;2.72;71.35
72772;SHT30;60894;42.544;1.516;2024-03-08T01:16:44;2.75;70.88
72772;SHT30;60894;42.544;1.516;2024-03-08T01:19:11;2.46;71.79
72772;SHT30;60894;42.544;1.516;2024-03-08T01:21:39;2.32;72.56
72772;SHT30;60894;42.544;1.516;2024-03-08T01:24:06;2.25;72.89
72772;SHT30;60894;42.544;1.516;2024-03-08T01:26:33;2.40;72.80
72772;SHT30;60894;42.544;1.516;2024-03-08T01:29:01;2.51;72.22
72772;SHT30;60894;42.544;1.516;2024-03-08T01:31:30;2.53;72.56
72772;SHT30;60894;42.544;1.516;2024-03-08T01:33:57;2.63;72.41
72772;SHT30;60894;42.544;1.516;2024-03-08T01:36:24;2.62;72.22
72772;SHT30;60894;42.544;1.516;2024-03-08T01:38:51;2.42;72.77
72772;SHT30;60894;42.544;1.516;2024-03-08T01:41:18;2.45;72.52
72772;SHT30;60894;42.544;1.516;2024-03-08T01:43:46;2.61;72.79
72772;SHT30;60894;42.544;1.516;2024-03-08T01:46:15;2.65;72.39
72772;SHT30;60894;42.544;1.516;2024-03-08T01:48:46;2.63;72.53
72772;SHT30;60894;42.544;1.516;2024-03-08T01:51:13;2.68;72.11
72772;SHT30;60894;42.544;1.516;2024-03-08T01:53:42;2.75;71.15
72772;SHT30;60894;42.544;1.516;2024-03-08T01:56:11;2.68;71.06
72772;SHT30;60894;42.544;1.516;2024-03-08T01:58:40;2.62;72.05
72772;SHT30;60894;42.544;1.516;2024-03-08T02:01:10;2.63;72.45
72772;SHT30;60894;42.544;1.516;2024-03-08T02:03:40;2.66;72.14
72772;SHT30;60894;42.544;1.516;2024-03-08T02:06:11;2.62;72.92
72772;SHT30;60894;42.544;1.516;2024-03-08T02:08:41;2.63;73.05
72772;SHT30;60894;42.544;1.516;2024-03-08T02:11:09;2.75;72.36
72772;SHT30;60894;42.544;1.516;2024-03-08T02:13:36;2.78;72.66
72772;SHT30;60894;42.544;1.516;2024-03-08T02:16:04;2.83;72.25
72772;SHT30;60894;42.544;1.516;2024-03-08T02:18:33;2.96;70.88
72772;SHT30;60894;42.544;1.516;2024-03-08T02:21:03;2.92;70.68
72772;SHT30;60894;42.544;1.516;2024-03-08T02:23:30;2.79;71.66
72772;SHT30;60894;42.544;1.516;2024-03-08T02:25:58;2.96;73.09
72772;SHT30;60894;42.544;1.516;2024-03-08T02:28:25;3.00;71.58
72772;SHT30;60894;42.544;1.516;2024-03-08T02:30:53;2.96;71.29
72772;SHT30;60894;42.544;1.516;2024-03-08T02:33:21;3.07;70.08
72772;SHT30;60894;42.544;1.516;2024-03-08T02:35:49;2.89;70.65
72772;SHT30;60894;42.544;1.516;2024-03-08T02:38:20;2.76;71.53
72772;SHT30;60894;42.544;1.516;2024-03-08T02:40:47;2.73;72.01
72772;SHT30;60894;42.544;1.516;2024-03-08T02:43:16;2.82;72.26
72772;SHT30;60894;42.544;1.516;2024-03-08T02:45:44;2.79;71.57
72772;SHT30;60894;42.544;1.516;2024-03-08T02:48:12;2.93;71.40
72772;SHT30;60894;42.544;1.516;2024-03-08T02:50:39;2.82;70.68
72772;SHT30;60894;42.544;1.516;2024-03-08T02:53:08;2.78;71.07
72772;SHT30;60894;42.544;1.516;2024-03-08T02:55:37;2.75;71.62
72772;SHT30;60894;42.544;1.516;2024-03-08T02:58:04;2.81;71.36
72772;SHT30;60894;42.544;1.516;2024-03-08T03:00:31;2.83;71.80
72772;SHT30;60894;42.544;1.516;2024-03-08T03:02:58;3.13;70.63
72772;SHT30;60894;42.544;1.516;2024-03-08T03:05:25;3.26;70.43
72772;SHT30;60894;42.544;1.516;2024-03-08T03:07:52;3.16;69.72
72772;SHT30;60894;42.544;1.516;2024-03-08T03:10:19;3.12;69.75
72772;SHT30;60894;42.544;1.516;2024-03-08T03:12:48;2.89;69.79
72772;SHT30;60894;42.544;1.516;2024-03-08T03:15:16;2.79;70.38
72772;SHT30;60894;42.544;1.516;2024-03-08T03:17:46;2.89;70.64
72772;SHT30;60894;42.544;1.516;2024-03-08T03:20:13;2.93;71.33
72772;SHT30;60894;42.544;1.516;2024-03-08T03:22:48;2.99;71.24
72772;SHT30;60894;42.544;1.516;2024-03-08T03:25:18;3.07;71.02
72772;SHT30;60894;42.544;1.516;2024-03-08T03:27:51;3.10;72.25
72772;SHT30;60894;42.544;1.516;2024-03-08T03:30:18;3.26;70.80
72772;SHT30;60894;42.544;1.516;2024-03-08T03:32:48;3.13;70.25
72772;SHT30;60894;42.544;1.516;2024-03-08T03:35:16;3.24;70.36
72772;SHT30;60894;42.544;1.516;2024-03-08T03:37:44;3.26;70.49
72772;SHT30;60894;42.544;1.516;2024-03-08T03:40:17;3.24;70.17
72772;SHT30;60894;42.544;1.516;2024-03-08T03:42:45;3.30;70.95
72772;SHT30;60894;42.544;1.516;2024-03-08T03:45:13;3.35;70.53
72772;SHT30;60894;42.544;1.516;2024-03-08T03:47:45;3.14;69.88
72772;SHT30;60894;42.544;1.516;2024-03-08T03:50:12;3.26;70.36
72772;SHT30;60894;42.544;1.516;2024-03-08T03:52:39;3.16;70.27
72772;SHT30;60894;42.544;1.516;2024-03-08T03:55:08;2.82;70.77
72772;SHT30;60894;42.544;1.516;2024-03-08T03:57:35;2.83;71.10
72772;SHT30;60894;42.544;1.516;2024-03-08T04:00:03;2.75;71.27
72772;SHT30;60894;42.544;1.516;2024-03-08T04:02:40;2.89;70.92
72772;SHT30;60894;42.544;1.516;2024-03-08T04:05:08;3.04;70.70
72772;SHT30;60894;42.544;1.516;2024-03-08T04:07:36;2.97;70.35
72772;SHT30;60894;42.544;1.516;2024-03-08T04:10:03;2.96;70.75
72772;SHT30;60894;42.544;1.516;2024-03-08T04:12:31;3.09;70.51
72772;SHT30;60894;42.544;1.516;2024-03-08T04:14:58;3.19;71.01
72772;SHT30;60894;42.544;1.516;2024-03-08T04:17:25;3.21;70.70
72772;SHT30;60894;42.544;1.516;2024-03-08T04:19:54;3.20;69.92
72772;SHT30;60894;42.544;1.516;2024-03-08T04:22:21;3.26;70.31
72772;SHT30;60894;42.544;1.516;2024-03-08T04:24:48;3.44;69.57
72772;SHT30;60894;42.544;1.516;2024-03-08T04:27:15;3.54;69.81
72772;SHT30;60894;42.544;1.516;2024-03-08T04:29:41;3.44;70.20
72772;SHT30;60894;42.544;1.516;2024-03-08T04:32:09;3.47;70.33
72772;SHT30;60894;42.544;1.516;2024-03-08T04:34:36;3.57;68.91
72772;SHT30;60894;42.544;1.516;2024-03-08T04:37:05;3.43;69.25
72772;SHT30;60894;42.544;1.516;2024-03-08T04:39:32;3.47;68.67
72772;SHT30;60894;42.544;1.516;2024-03-08T04:42:00;3.44;68.18
72772;SHT30;60894;42.544;1.516;2024-03-08T04:44:30;3.16;69.28
72772;SHT30;60894;42.544;1.516;2024-03-08T04:46:59;3.07;69.54
72772;SHT30;60894;42.544;1.516;2024-03-08T04:49:26;3.07;69.36
72772;SHT30;60894;42.544;1.516;2024-03-08T04:51:53;3.02;69.23
72772;SHT30;60894;42.544;1.516;2024-03-08T04:54:22;3.09;69.18
72772;SHT30;60894;42.544;1.516;2024-03-08T04:56:49;3.09;69.51
72772;SHT30;60894;42.544;1.516;2024-03-08T04:59:16;3.12;69.86
72772;SHT30;60894;42.544;1.516;2024-03-08T05:01:43;3.07;69.50
72772;SHT30;60894;42.544;1.516;2024-03-08T05:04:10;2.95;69.50
72772;SHT30;60894;42.544;1.516;2024-03-08T05:06:37;3.00;69.93
72772;SHT30;60894;42.544;1.516;2024-03-08T05:09:04;2.75;70.20
72772;SHT30;60894;42.544;1.516;2024-03-08T05:11:40;2.92;70.53
72772;SHT30;60894;42.544;1.516;2024-03-08T05:14:08;3.02;69.80
72772;SHT30;60894;42.544;1.516;2024-03-08T05:16:35;3.17;70.03
72772;SHT30;60894;42.544;1.516;2024-03-08T05:19:02;3.14;69.84
72772;SHT30;60894;42.544;1.516;2024-03-08T05:21:29;2.97;71.29
72772;SHT30;60894;42.544;1.516;2024-03-08T05:23:56;3.04;71.82
72772;SHT30;60894;42.544;1.516;2024-03-08T05:26:23;3.03;71.63
72772;SHT30;60894;42.544;1.516;2024-03-08T05:28:51;2.92;71.76
72772;SHT30;60894;42.544;1.516;2024-03-08T05:31:19;2.73;71.80
72772;SHT30;60894;42.544;1.516;2024-03-08T05:33:48;2.81;71.38
72772;SHT30;60894;42.544;1.516;2024-03-08T05:36:15;2.83;71.30
72772;SHT30;60894;42.544;1.516;2024-03-08T05:38:42;3.02;71.31
72772;SHT30;60894;42.544;1.516;2024-03-08T05:41:09;3.09;70.68
72772;SHT30;60894;42.544;1.516;2024-03-08T05:43:37;3.26;70.16
72772;SHT30;60894;42.544;1.516;2024-03-08T05:46:05;3.24;71.13
72772;SHT30;60894;42.544;1.516;2024-03-08T05:48:32;3.21;71.79
72772;SHT30;60894;42.544;1.516;2024-03-08T05:51:00;3.14;72.08
72772;SHT30;60894;42.544;1.516;2024-03-08T05:53:27;3.14;72.08
72772;SHT30;60894;42.544;1.516;2024-03-08T05:55:57;3.10;72.16
72772;SHT30;60894;42.544;1.516;2024-03-08T05:58:24;3.06;73.61
72772;SHT30;60894;42.544;1.516;2024-03-08T06:00:51;3.02;73.88
72772;SHT30;60894;42.544;1.516;2024-03-08T06:03:19;3.03;74.60
72772;SHT30;60894;42.544;1.516;2024-03-08T06:05:47;3.26;74.66
72772;SHT30;60894;42.544;1.516;2024-03-08T06:08:14;3.23;75.34
72772;SHT30;60894;42.544;1.516;2024-03-08T06:10:42;3.21;75.81
72772;SHT30;60894;42.544;1.516;2024-03-08T06:13:09;2.88;77.74
72772;SHT30;60894;42.544;1.516;2024-03-08T06:15:37;2.83;78.52
72772;SHT30;60894;42.544;1.516;2024-03-08T06:18:05;2.72;79.34
72772;SHT30;60894;42.544;1.516;2024-03-08T06:20:37;2.62;80.73
72772;SHT30;60894;42.544;1.516;2024-03-08T06:23:04;2.55;82.40
72772;SHT30;60894;42.544;1.516;2024-03-08T06:25:31;2.38;83.71
72772;SHT30;60894;42.544;1.516;2024-03-08T06:27:58;2.32;84.25
72772;SHT30;60894;42.544;1.516;2024-03-08T06:30:25;2.62;82.80
72772;SHT30;60894;42.544;1.516;2024-03-08T06:32:55;2.49;83.56
72772;SHT30;60894;42.544;1.516;2024-03-08T06:35:24;2.59;83.51
72772;SHT30;60894;42.544;1.516;2024-03-08T06:37:52;2.45;83.81
72772;SHT30;60894;42.544;1.516;2024-03-08T06:40:19;2.25;85.00
72772;SHT30;60894;42.544;1.516;2024-03-08T06:42:46;2.37;84.85
72772;SHT30;60894;42.544;1.516;2024-03-08T06:45:13;2.18;85.68
72772;SHT30;60894;42.544;1.516;2024-03-08T06:47:44;2.25;85.87
72772;SHT30;60894;42.544;1.516;2024-03-08T06:50:12;2.34;84.22
72772;SHT30;60894;42.544;1.516;2024-03-08T06:52:40;2.27;85.26
72772;SHT30;60894;42.544;1.516;2024-03-08T06:55:09;2.17;85.98
72772;SHT30;60894;42.544;1.516;2024-03-08T06:57:38;2.13;86.45
72772;SHT30;60894;42.544;1.516;2024-03-08T07:00:07;2.17;86.07
72772;SHT30;60894;42.544;1.516;2024-03-08T07:02:35;2.13;86.52
72772;SHT30;60894;42.544;1.516;2024-03-08T07:05:02;2.00;86.92
72772;SHT30;60894;42.544;1.516;2024-03-08T07:07:30;2.07;86.82
72772;SHT30;60894;42.544;1.516;2024-03-08T07:09:57;2.21;86.41
72772;SHT30;60894;42.544;1.516;2024-03-08T07:12:25;2.21;86.11
72772;SHT30;60894;42.544;1.516;2024-03-08T07:14:52;2.24;86.32
72772;SHT30;60894;42.544;1.516;2024-03-08T07:17:20;2.24;86.36
72772;SHT30;60894;42.544;1.516;2024-03-08T07:19:47;2.24;86.53
72772;SHT30;60894;42.544;1.516;2024-03-08T07:22:14;2.22;86.10
72772;SHT30;60894;42.544;1.516;2024-03-08T07:24:42;2.21;86.14
72772;SHT30;60894;42.544;1.516;2024-03-08T07:27:31;2.21;86.67
72772;SHT30;60894;42.544;1.516;2024-03-08T07:29:59;2.46;85.09
72772;SHT30;60894;42.544;1.516;2024-03-08T07:32:27;2.27;85.41
72772;SHT30;60894;42.544;1.516;2024-03-08T07:34:55;2.20;85.93
72772;SHT30;60894;42.544;1.516;2024-03-08T07:37:22;2.20;85.25
72772;SHT30;60894;42.544;1.516;2024-03-08T07:39:49;2.06;86.26
72772;SHT30;60894;42.544;1.516;2024-03-08T07:42:16;1.99;87.54
72772;SHT30;60894;42.544;1.516;2024-03-08T07:44:44;2.13;86.80
72772;SHT30;60894;42.544;1.516;2024-03-08T07:47:13;1.79;87.30
72772;SHT30;60894;42.544;1.516;2024-03-08T07:49:42;1.99;85.73
72772;SHT30;60894;42.544;1.516;2024-03-08T07:52:09;2.04;85.57
72772;SHT30;60894;42.544;1.516;2024-03-08T07:54:41;2.13;84.93
72772;SHT30;60894;42.544;1.516;2024-03-08T07:57:08;2.01;85.55
72772;SHT30;60894;42.544;1.516;2024-03-08T07:59:35;1.81;86.81
72772;SHT30;60894;42.544;1.516;2024-03-08T08:02:04;1.70;87.97
72772;SHT30;60894;42.544;1.516;2024-03-08T08:04:31;1.80;88.20
72772;SHT30;60894;42.544;1.516;2024-03-08T08:06:58;1.90;87.98
72772;SHT30;60894;42.544;1.516;2024-03-08T08:09:26;1.93;87.08
72772;SHT30;60894;42.544;1.516;2024-03-08T08:11:59;1.90;86.48
72772;SHT30;60894;42.544;1.516;2024-03-08T08:14:27;1.87;86.84
72772;SHT30;60894;42.544;1.516;2024-03-08T08:16:54;1.83;87.09
72772;SHT30;60894;42.544;1.516;2024-03-08T08:19:24;1.86;86.85
72772;SHT30;60894;42.544;1.516;2024-03-08T08:21:52;1.80;87.00
72772;SHT30;60894;42.544;1.516;2024-03-08T08:24:19;1.70;88.12
72772;SHT30;60894;42.544;1.516;2024-03-08T08:26:47;1.77;87.79
72772;SHT30;60894;42.544;1.516;2024-03-08T08:29:14;1.81;88.35
72772;SHT30;60894;42.544;1.516;2024-03-08T08:31:41;1.77;88.15
72772;SHT30;60894;42.544;1.516;2024-03-08T08:34:09;1.86;88.16
72772;SHT30;60894;42.544;1.516;2024-03-08T08:36:38;1.91;87.97
72772;SHT30;60894;42.544;1.516;2024-03-08T08:39:05;1.97;87.38
72772;SHT30;60894;42.544;1.516;2024-03-08T08:41:38;1.93;86.52
72772;SHT30;60894;42.544;1.516;2024-03-08T08:44:05;1.71;87.78
72772;SHT30;60894;42.544;1.516;2024-03-08T08:46:33;1.67;89.60
72772;SHT30;60894;42.544;1.516;2024-03-08T08:49:02;1.70;89.20
72772;SHT30;60894;42.544;1.516;2024-03-08T08:51:29;1.62;89.74
72772;SHT30;60894;42.544;1.516;2024-03-08T08:53:57;1.52;89.86
72772;SHT30;60894;42.544;1.516;2024-03-08T08:56:24;1.74;89.31
72772;SHT30;60894;42.544;1.516;2024-03-08T08:58:51;1.71;89.15
72772;SHT30;60894;42.544;1.516;2024-03-08T09:01:18;2.00;87.31
72772;SHT30;60894;42.544;1.516;2024-03-08T09:03:45;1.99;88.08
72772;SHT30;60894;42.544;1.516;2024-03-08T09:06:13;1.99;87.89
72772;SHT30;60894;42.544;1.516;2024-03-08T09:08:40;1.90;87.99
72772;SHT30;60894;42.544;1.516;2024-03-08T11:30:36;4.29;74.78
72772;SHT30;60894;42.544;1.516;2024-03-08T11:33:04;4.33;73.61
72772;SHT30;60894;42.544;1.516;2024-03-08T11:35:31;4.29;74.06
72772;SHT30;60894;42.544;1.516;2024-03-08T11:37:58;4.30;75.00
72772;SHT30;60894;42.544;1.516;2024-03-08T11:40:26;4.13;75.56
72772;SHT30;60894;42.544;1.516;2024-03-08T11:42:53;4.10;75.39
72772;SHT30;60894;42.544;1.516;2024-03-08T11:45:21;4.10;76.99
72772;SHT30;60894;42.544;1.516;2024-03-08T11:47:49;3.93;78.66
72772;SHT30;60894;42.544;1.516;2024-03-08T11:50:16;3.78;79.07
72772;SHT30;60894;42.544;1.516;2024-03-08T11:52:44;3.67;80.69
72772;SHT30;60894;42.544;1.516;2024-03-08T11:55:11;3.82;80.88
72772;SHT30;60894;42.544;1.516;2024-03-08T11:57:39;3.71;79.63
72772;SHT30;60894;42.544;1.516;2024-03-08T12:00:15;3.70;79.14
72772;SHT30;60894;42.544;1.516;2024-03-08T12:03:02;3.61;78.47
72772;SHT30;60894;42.544;1.516;2024-03-08T12:05:29;3.70;78.88
72772;SHT30;60894;42.544;1.516;2024-03-08T12:07:59;3.64;77.96
72772;SHT30;60894;42.544;1.516;2024-03-08T12:10:27;3.74;78.05
72772;SHT30;60894;42.544;1.516;2024-03-08T12:12:56;3.84;75.53
72772;SHT30;60894;42.544;1.516;2024-03-08T12:15:25;3.75;74.53
72772;SHT30;60894;42.544;1.516;2024-03-08T12:17:53;3.88;74.78
72772;SHT30;60894;42.544;1.516;2024-03-08T12:20:24;3.85;73.79
72772;SHT30;60894;42.544;1.516;2024-03-08T12:22:53;3.93;75.90
72772;SHT30;60894;42.544;1.516;2024-03-08T12:25:22;3.98;73.91
72772;SHT30;60894;42.544;1.516;2024-03-08T12:27:49;3.88;74.04
72772;SHT30;60894;42.544;1.516;2024-03-08T12:30:19;3.91;75.03
72772;SHT30;60894;42.544;1.516;2024-03-08T12:32:53;4.01;74.76
72772;SHT30;60894;42.544;1.516;2024-03-08T12:35:24;3.86;74.63
72772;SHT30;60894;42.544;1.516;2024-03-08T12:37:53;4.02;75.63
72772;SHT30;60894;42.544;1.516;2024-03-08T12:40:26;4.07;75.03
72772;SHT30;60894;42.544;1.516;2024-03-08T12:42:54;4.03;73.68
72772;SHT30;60894;42.544;1.516;2024-03-08T12:45:22;4.02;72.97
72772;SHT30;60894;42.544;1.516;2024-03-08T12:47:50;3.98;73.89
72772;SHT30;60894;42.544;1.516;2024-03-08T12:50:18;3.95;71.64
72772;SHT30;60894;42.544;1.516;2024-03-08T12:52:47;4.07;72.42
72772;SHT30;60894;42.544;1.516;2024-03-08T12:55:15;4.02;71.61
72772;SHT30;60894;42.544;1.516;2024-03-08T12:57:44;3.98;72.68
72772;SHT30;60894;42.544;1.516;2024-03-08T13:00:13;3.95;73.31
72772;SHT30;60894;42.544;1.516;2024-03-08T13:02:44;3.99;73.24
72772;SHT30;60894;42.544;1.516;2024-03-08T13:05:11;3.96;73.84
72772;SHT30;60894;42.544;1.516;2024-03-08T13:07:40;3.96;74.46
72772;SHT30;60894;42.544;1.516;2024-03-08T13:10:13;4.05;73.49
72772;SHT30;60894;42.544;1.516;2024-03-08T13:12:41;4.22;73.54
72772;SHT30;60894;42.544;1.516;2024-03-08T13:15:08;4.30;72.41
72772;SHT30;60894;42.544;1.516;2024-03-08T13:17:37;4.43;71.90
72772;SHT30;60894;42.544;1.516;2024-03-08T13:20:07;4.53;71.38
72772;SHT30;60894;42.544;1.516;2024-03-08T13:22:34;4.57;70.01
72772;SHT30;60894;42.544;1.516;2024-03-08T13:25:01;4.57;69.48
72772;SHT30;60894;42.544;1.516;2024-03-08T13:27:32;4.64;68.89
72772;SHT30;60894;42.544;1.516;2024-03-08T13:29:59;4.70;68.34
72772;SHT30;60894;42.544;1.516;2024-03-08T13:32:27;4.74;67.63
72772;SHT30;60894;42.544;1.516;2024-03-08T13:34:56;4.81;68.12
72772;SHT30;60894;42.544;1.516;2024-03-08T13:37:23;4.75;66.85
72772;SHT30;60894;42.544;1.516;2024-03-08T13:39:50;4.74;65.99
72772;SHT30;60894;42.544;1.516;2024-03-08T13:42:18;4.83;66.94
72772;SHT30;60894;42.544;1.516;2024-03-08T13:44:47;4.83;66.36
72772;SHT30;60894;42.544;1.516;2024-03-08T13:47:14;5.01;68.22
72772;SHT30;60894;42.544;1.516;2024-03-08T13:49:42;5.05;67.61
72772;SHT30;60894;42.544;1.516;2024-03-08T13:52:10;4.91;67.87
72772;SHT30;60894;42.544;1.516;2024-03-08T13:54:38;4.81;69.20
72772;SHT30;60894;42.544;1.516;2024-03-08T13:57:05;4.73;70.35
72772;SHT30;60894;42.544;1.516;2024-03-08T13:59:32;4.71;71.14
72772;SHT30;60894;42.544;1.516;2024-03-08T14:02:02;4.81;74.60
72772;SHT30;60894;42.544;1.516;2024-03-08T14:04:30;4.73;75.30
72772;SHT30;60894;42.544;1.516;2024-03-08T14:06:57;4.43;74.50
72772;SHT30;60894;42.544;1.516;2024-03-08T14:09:29;4.43;76.03
72772;SHT30;60894;42.544;1.516;2024-03-08T14:11:56;4.28;77.51
72772;SHT30;60894;42.544;1.516;2024-03-08T14:14:24;4.12;78.53
72772;SHT30;60894;42.544;1.516;2024-03-08T14:16:51;3.79;78.80
72772;SHT30;60894;42.544;1.516;2024-03-08T14:19:22;3.50;78.61
72772;SHT30;60894;42.544;1.516;2024-03-08T14:21:49;3.41;80.44
72772;SHT30;60894;42.544;1.516;2024-03-08T14:24:19;3.51;81.52
72772;SHT30;60894;42.544;1.516;2024-03-08T14:26:46;3.48;82.08
72772;SHT30;60894;42.544;1.516;2024-03-08T14:29:14;3.64;80.61
72772;SHT30;60894;42.544;1.516;2024-03-08T14:31:41;3.60;81.14
72772;SHT30;60894;42.544;1.516;2024-03-08T14:34:09;3.61;81.91
72772;SHT30;60894;42.544;1.516;2024-03-08T14:36:37;3.51;82.12
72772;SHT30;60894;42.544;1.516;2024-03-08T14:39:04;3.45;83.63
72772;SHT30;60894;42.544;1.516;2024-03-08T14:41:33;3.44;82.42
72772;SHT30;60894;42.544;1.516;2024-03-08T14:44:00;3.34;83.47
72772;SHT30;60894;42.544;1.516;2024-03-08T14:46:28;3.17;83.34
72772;SHT30;60894;42.544;1.516;2024-03-08T14:48:56;3.37;83.67
72772;SHT30;60894;42.544;1.516;2024-03-08T14:51:23;3.44;82.47
72772;SHT30;60894;42.544;1.516;2024-03-08T14:53:53;3.41;83.87
72772;SHT30;60894;42.544;1.516;2024-03-08T14:56:21;3.53;83.37
72772;SHT30;60894;42.544;1.516;2024-03-08T14:58:48;3.37;81.05
72772;SHT30;60894;42.544;1.516;2024-03-08T15:01:17;3.33;82.45
72772;SHT30;60894;42.544;1.516;2024-03-08T15:03:48;3.21;82.57
72772;SHT30;60894;42.544;1.516;2024-03-08T15:06:15;3.26;83.82
72772;SHT30;60894;42.544;1.516;2024-03-08T15:08:45;3.19;83.19
72772;SHT30;60894;42.544;1.516;2024-03-08T15:11:14;3.03;83.50
72772;SHT30;60894;42.544;1.516;2024-03-08T15:13:47;3.02;84.10
72772;SHT30;60894;42.544;1.516;2024-03-08T15:16:17;3.06;84.32
72772;SHT30;60894;42.544;1.516;2024-03-08T15:18:44;3.02;84.60
72772;SHT30;60894;42.544;1.516;2024-03-08T15:21:14;3.03;85.07
72772;SHT30;60894;42.544;1.516;2024-03-08T15:23:44;3.00;85.08
72772;SHT30;60894;42.544;1.516;2024-03-08T15:26:16;3.09;85.16
72772;SHT30;60894;42.544;1.516;2024-03-08T15:28:44;3.09;84.61
72772;SHT30;60894;42.544;1.516;2024-03-08T15:31:13;3.06;84.85
72772;SHT30;60894;42.544;1.516;2024-03-08T15:34:02;2.99;85.45
72772;SHT30;60894;42.544;1.516;2024-03-08T15:36:32;3.07;85.47
72772;SHT30;60894;42.544;1.516;2024-03-08T15:39:00;2.96;84.48
72772;SHT30;60894;42.544;1.516;2024-03-08T15:41:28;3.06;84.78
72772;SHT30;60894;42.544;1.516;2024-03-08T15:43:55;2.99;85.62
72772;SHT30;60894;42.544;1.516;2024-03-08T15:46:22;3.00;86.57
72772;SHT30;60894;42.544;1.516;2024-03-08T15:48:50;3.06;86.15
72772;SHT30;60894;42.544;1.516;2024-03-08T15:51:19;3.04;86.48
72772;SHT30;60894;42.544;1.516;2024-03-08T15:53:46;3.06;85.91
72772;SHT30;60894;42.544;1.516;2024-03-08T15:56:18;3.06;86.28
72772;SHT30;60894;42.544;1.516;2024-03-08T15:58:46;3.04;85.50
72772;SHT30;60894;42.544;1.516;2024-03-08T16:01:13;2.93;85.94
72772;SHT30;60894;42.544;1.516;2024-03-08T16:03:42;3.00;84.89
72772;SHT30;60894;42.544;1.516;2024-03-08T16:06:10;3.00;85.13
72772;SHT30;60894;42.544;1.516;2024-03-08T16:08:39;2.96;85.18
72772;SHT30;60894;42.544;1.516;2024-03-08T16:11:06;2.89;85.54
72772;SHT30;60894;42.544;1.516;2024-03-08T16:13:34;2.93;85.83
72772;SHT30;60894;42.544;1.516;2024-03-08T16:16:04;2.97;85.72
72772;SHT30;60894;42.544;1.516;2024-03-08T16:18:31;2.89;84.53
72772;SHT30;60894;42.544;1.516;2024-03-08T16:21:00;2.93;85.86
72772;SHT30;60894;42.544;1.516;2024-03-08T16:23:29;2.79;85.77
72772;SHT30;60894;42.544;1.516;2024-03-08T16:25:58;2.69;86.75
72772;SHT30;60894;42.544;1.516;2024-03-08T16:28:25;2.69;87.25
72772;SHT30;60894;42.544;1.516;2024-03-08T16:30:54;2.83;87.02
72772;SHT30;60894;42.544;1.516;2024-03-08T16:33:21;2.79;86.16
72772;SHT30;60894;42.544;1.516;2024-03-08T16:35:49;2.78;86.74
72772;SHT30;60894;42.544;1.516;2024-03-08T16:38:17;2.85;87.11
72772;SHT30;60894;42.544;1.516;2024-03-08T16:40:45;2.89;87.40
72772;SHT30;60894;42.544;1.516;2024-03-08T16:43:14;2.96;86.25
72772;SHT30;60894;42.544;1.516;2024-03-08T16:45:41;2.92;87.68
72772;SHT30;60894;42.544;1.516;2024-03-08T16:48:09;2.81;86.87
72772;SHT30;60894;42.544;1.516;2024-03-08T16:50:37;2.63;87.47
72772;SHT30;60894;42.544;1.516;2024-03-08T16:53:04;2.69;87.71
72772;SHT30;60894;42.544;1.516;2024-03-08T16:55:31;2.62;88.90
72772;SHT30;60894;42.544;1.516;2024-03-08T16:57:59;2.58;88.51
72772;SHT30;60894;42.544;1.516;2024-03-08T17:00:28;2.42;88.96
72772;SHT30;60894;42.544;1.516;2024-03-08T17:02:55;2.46;89.42
72772;SHT30;60894;42.544;1.516;2024-03-08T17:05:23;2.25;89.24
72772;SHT30;60894;42.544;1.516;2024-03-08T17:07:54;2.25;88.78
72772;SHT30;60894;42.544;1.516;2024-03-08T17:10:23;2.41;89.49
72772;SHT30;60894;42.544;1.516;2024-03-08T17:12:53;2.44;90.16
72772;SHT30;60894;42.544;1.516;2024-03-08T17:15:22;2.49;89.39
72772;SHT30;60894;42.544;1.516;2024-03-08T17:17:52;2.45;88.82
72772;SHT30;60894;42.544;1.516;2024-03-08T17:20:20;2.40;89.59
72772;SHT30;60894;42.544;1.516;2024-03-08T17:22:48;2.24;89.35
72772;SHT30;60894;42.544;1.516;2024-03-08T17:25:16;2.22;89.75
72772;SHT30;60894;42.544;1.516;2024-03-08T17:27:47;2.28;90.06
72772;SHT30;60894;42.544;1.516;2024-03-08T17:30:16;2.18;90.29
72772;SHT30;60894;42.544;1.516;2024-03-08T17:32:50;2.40;90.38
72772;SHT30;60894;42.544;1.516;2024-03-08T17:35:19;2.31;90.22
72772;SHT30;60894;42.544;1.516;2024-03-08T17:37:47;2.32;89.63
72772;SHT30;60894;42.544;1.516;2024-03-08T17:40:16;2.34;88.92
72772;SHT30;60894;42.544;1.516;2024-03-08T17:42:48;2.37;87.83
72772;SHT30;60894;42.544;1.516;2024-03-08T17:45:16;2.28;89.45
72772;SHT30;60894;42.544;1.516;2024-03-08T17:47:43;2.34;88.85
72772;SHT30;60894;42.544;1.516;2024-03-08T17:50:13;2.38;89.19
72772;SHT30;60894;42.544;1.516;2024-03-08T17:52:42;2.61;88.54
72772;SHT30;60894;42.544;1.516;2024-03-08T17:55:10;2.71;87.25
72772;SHT30;60894;42.544;1.516;2024-03-08T17:57:41;2.61;87.42
72772;SHT30;60894;42.544;1.516;2024-03-08T18:00:11;2.52;87.77
72772;SHT30;60894;42.544;1.516;2024-03-08T18:02:44;2.56;87.55
72772;SHT30;60894;42.544;1.516;2024-03-08T18:05:13;2.66;87.16
72772;SHT30;60894;42.544;1.516;2024-03-08T18:07:41;2.62;86.70
72772;SHT30;60894;42.544;1.516;2024-03-08T18:10:09;2.61;87.16